Ballycanew, Ireland
Current Conditions -  °F | °C
As of 12:00 PM on Thursday 23 Oct 2014 (Local Time) from EIWF Reporting Station
Broken Clouds Broken Clouds  
Wind Chill: 57°   Ceiling: 400
Heat Index: 57°   Visibility: 6mi
Dew Point: 55°   Wind: 10mph
Humidity: 94%   Direction: 260°W
Pressure: 29.94"   Gusts: NA
Location:  52.61°N, 6.31°W
Report Text: EIWF 231200Z 26009KT 220V300 9999 BKN004 14/13 Q1014 R21/0/////
Loading
Personal Weather Stations






























Interactive Weather Map
Tropical Storm Tracking
New forecast layout! Learn more

10-Day Weather Forecast

Advertisements
Track Severe Weather on mobile